Main page
METAR-TAF:

METAR-TAF

Airports :

Srinagar International Airport

Srinagar, India

latitude: 33-59-14N, longitude: 074-46-27E, elevation: 1655 m

Current weather observation

The report was made 41 minutes ago, at 01:30 UTC
Wind 1 kt from variable directions
Temperature 5°C
Humidity 75%
Pressure 1024 hPa
Visibility: 2700 m
Scattered clouds at a height of 3000 ft
Broken clouds at a height of 9000 ft
mist

METAR: VISR 160130Z VRB01KT 2700 BR SCT030 BKN090 05/01 Q1024 NOSIG

Time: 07:41 (02:11 UTC)


TAF: missing

Weather observations and forecasts of more than 4000 airports (METAR and TAF reports).

The available stations are represented by yellow and red dots on the map.

Hover mouse over dot to see the name of the station.

Then click to see weather observations and forecasts.

To change the map : click on the green buttons with a black cross to zoom in, on the green button with a dash to zoom out, or on the green arrows for adjacent maps.


METAR-TAF: